DLH46P LOWS-EDDF
Flight info
| Callsign | DLH46P |
|---|---|
| Flight time | N/A |
| Altitude | 30000 |
| Route | INROM2A INROM DCT SIMBA Y700 NENUM T161 DEBHI DEBHI1C |
| Aircraft | A320/M-SDE2E3FGIJ1LORWXYZ/HB1 |
Departure
| Time | 2026-04-27 09:56 |
|---|---|
| Airport | Salzburg Airport (LOWS) |
Arrival
| Time | N/A |
|---|---|
| Airport | Frankfurt Main Airport (EDDF) |
| Time | Latitude | Longitude | Altitude | Speed | Heading |
|---|---|---|---|---|---|
| 2026-04-27 09:49 | 47.79259 | 12.99818 | 1420 ft | 0 kts | 282° |
| 2026-04-27 09:50 | 47.79258 | 12.99826 | 1420 ft | 4 kts | 282° |
| 2026-04-27 09:50 | 47.79253 | 12.99858 | 1420 ft | 4 kts | 280° |
| 2026-04-27 09:50 | 47.79251 | 12.99897 | 1420 ft | 4 kts | 263° |
| 2026-04-27 09:50 | 47.79258 | 12.99933 | 1420 ft | 4 kts | 230° |
| 2026-04-27 09:51 | 47.79276 | 12.99951 | 1420 ft | 4 kts | 168° |
| 2026-04-27 09:51 | 47.79282 | 12.99949 | 1420 ft | 0 kts | 157° |
| 2026-04-27 09:53 | 47.79252 | 12.99968 | 1420 ft | 10 kts | 157° |
| 2026-04-27 09:53 | 47.79194 | 13.00005 | 1420 ft | 9 kts | 157° |
| 2026-04-27 09:53 | 47.79117 | 13.00054 | 1420 ft | 16 kts | 156° |
| 2026-04-27 09:53 | 47.79019 | 13.00116 | 1420 ft | 15 kts | 157° |
| 2026-04-27 09:54 | 47.78957 | 13.00209 | 1420 ft | 13 kts | 98° |
| 2026-04-27 09:54 | 47.78952 | 13.00334 | 1420 ft | 11 kts | 98° |
| 2026-04-27 09:54 | 47.78878 | 13.00414 | 1420 ft | 19 kts | 157° |
| 2026-04-27 09:54 | 47.78759 | 13.00489 | 1420 ft | 18 kts | 157° |
| 2026-04-27 09:55 | 47.78651 | 13.00558 | 1420 ft | 16 kts | 157° |
| 2026-04-27 09:55 | 47.78555 | 13.00621 | 1420 ft | 14 kts | 146° |
| 2026-04-27 09:55 | 47.78567 | 13.00856 | 1421 ft | 9 kts | 57° |
| 2026-04-27 09:56 | 47.78630 | 13.00838 | 1420 ft | 16 kts | 337° |
| 2026-04-27 09:56 | 47.78980 | 13.00617 | 1420 ft | 91 kts | 337° |
| 2026-04-27 09:56 | 47.79749 | 13.00129 | 1472 ft | 142 kts | 336° |
| 2026-04-27 09:56 | 47.80642 | 12.99570 | 2191 ft | 138 kts | 337° |
| 2026-04-27 09:57 | 47.81542 | 12.99027 | 2849 ft | 145 kts | 343° |
| 2026-04-27 09:57 | 47.82616 | 12.99052 | 3197 ft | 166 kts | 16° |
| 2026-04-27 09:57 | 47.83673 | 12.99970 | 3556 ft | 189 kts | 36° |
| 2026-04-27 09:57 | 47.84794 | 13.01198 | 3860 ft | 212 kts | 35° |
| 2026-04-27 09:58 | 47.86066 | 13.02572 | 4301 ft | 238 kts | 35° |
| 2026-04-27 09:58 | 47.87480 | 13.04093 | 4896 ft | 262 kts | 34° |
| 2026-04-27 09:58 | 47.88990 | 13.05716 | 5713 ft | 272 kts | 34° |
| 2026-04-27 09:58 | 47.90533 | 13.07381 | 6663 ft | 278 kts | 34° |
| 2026-04-27 09:59 | 47.92117 | 13.09095 | 7560 ft | 283 kts | 34° |
| 2026-04-27 09:59 | 47.93717 | 13.10833 | 8529 ft | 286 kts | 34° |
| 2026-04-27 09:59 | 47.95337 | 13.12594 | 9512 ft | 290 kts | 34° |
| 2026-04-27 09:59 | 47.96977 | 13.14376 | 10416 ft | 295 kts | 33° |
| 2026-04-27 10:00 | 47.98820 | 13.15939 | 10792 ft | 316 kts | 19° |
| 2026-04-27 10:00 | 48.00976 | 13.16743 | 11423 ft | 323 kts | 4° |
| 2026-04-27 10:00 | 48.03225 | 13.16682 | 12242 ft | 325 kts | 349° |
| 2026-04-27 10:00 | 48.05398 | 13.15740 | 13095 ft | 327 kts | 334° |
| 2026-04-27 10:01 | 48.07423 | 13.14163 | 13930 ft | 330 kts | 331° |
| 2026-04-27 10:01 | 48.09453 | 13.12527 | 14661 ft | 333 kts | 331° |
| 2026-04-27 10:01 | 48.11504 | 13.10871 | 15400 ft | 336 kts | 331° |
| 2026-04-27 10:01 | 48.13573 | 13.09203 | 16122 ft | 339 kts | 331° |
| 2026-04-27 10:02 | 48.15661 | 13.07523 | 16855 ft | 342 kts | 331° |
| 2026-04-27 10:02 | 48.17765 | 13.05826 | 17602 ft | 345 kts | 331° |
| 2026-04-27 10:02 | 48.19888 | 13.04111 | 18318 ft | 348 kts | 331° |
| 2026-04-27 10:02 | 48.22051 | 13.02439 | 18950 ft | 352 kts | 336° |
| 2026-04-27 10:03 | 48.24388 | 13.01313 | 19562 ft | 355 kts | 347° |
| 2026-04-27 10:03 | 48.26844 | 13.00744 | 20184 ft | 358 kts | 350° |
| 2026-04-27 10:03 | 48.29322 | 13.00213 | 20796 ft | 361 kts | 350° |
| 2026-04-27 10:03 | 48.31817 | 12.99668 | 21409 ft | 363 kts | 350° |
| 2026-04-27 10:04 | 48.34328 | 12.99113 | 22020 ft | 366 kts | 350° |
| 2026-04-27 10:04 | 48.36857 | 12.98553 | 22577 ft | 369 kts | 349° |
| 2026-04-27 10:04 | 48.39380 | 12.97993 | 23110 ft | 373 kts | 349° |
| 2026-04-27 10:04 | 48.41117 | 12.97607 | 23487 ft | 375 kts | 349° |
| 2026-04-27 10:05 | 48.44554 | 12.96843 | 24157 ft | 379 kts | 349° |
| 2026-04-27 10:05 | 48.46319 | 12.96454 | 24471 ft | 380 kts | 349° |
| 2026-04-27 10:05 | 48.48913 | 12.95681 | 24929 ft | 380 kts | 341° |
| 2026-04-27 10:05 | 48.51328 | 12.94091 | 25383 ft | 380 kts | 328° |
| 2026-04-27 10:06 | 48.54057 | 12.90788 | 25982 ft | 382 kts | 312° |
| 2026-04-27 10:06 | 48.55165 | 12.88662 | 26288 ft | 383 kts | 304° |
| 2026-04-27 10:06 | 48.56710 | 12.83856 | 26871 ft | 387 kts | 292° |
| 2026-04-27 10:06 | 48.57374 | 12.81292 | 27188 ft | 389 kts | 292° |
| 2026-04-27 10:07 | 48.58359 | 12.77478 | 27621 ft | 391 kts | 292° |
| 2026-04-27 10:07 | 48.59348 | 12.73646 | 28057 ft | 393 kts | 293° |
| 2026-04-27 10:07 | 48.60343 | 12.69794 | 28513 ft | 395 kts | 293° |
| 2026-04-27 10:07 | 48.61341 | 12.65927 | 28959 ft | 396 kts | 293° |
| 2026-04-27 10:08 | 48.62345 | 12.62037 | 29384 ft | 398 kts | 293° |
| 2026-04-27 10:08 | 48.63351 | 12.58133 | 29797 ft | 400 kts | 293° |
| 2026-04-27 10:08 | 48.64362 | 12.54204 | 30174 ft | 402 kts | 293° |
| 2026-04-27 10:08 | 48.65367 | 12.50280 | 30244 ft | 394 kts | 292° |
| 2026-04-27 10:09 | 48.66328 | 12.46505 | 30247 ft | 376 kts | 292° |
| 2026-04-27 10:09 | 48.67253 | 12.42860 | 30240 ft | 368 kts | 292° |
| 2026-04-27 10:09 | 48.69083 | 12.35682 | 30243 ft | 364 kts | 293° |
| 2026-04-27 10:10 | 48.70905 | 12.28534 | 30241 ft | 364 kts | 293° |
| 2026-04-27 10:10 | 48.72716 | 12.21372 | 30242 ft | 364 kts | 292° |
| 2026-04-27 10:11 | 48.74523 | 12.14208 | 30243 ft | 364 kts | 291° |
| 2026-04-27 10:11 | 48.75595 | 12.06692 | 30235 ft | 366 kts | 281° |
| 2026-04-27 10:12 | 48.76416 | 11.99074 | 30234 ft | 366 kts | 282° |
| 2026-04-27 10:12 | 48.77242 | 11.91455 | 30233 ft | 366 kts | 281° |
| 2026-04-27 10:13 | 48.78060 | 11.83838 | 30212 ft | 366 kts | 281° |
| 2026-04-27 10:13 | 48.78870 | 11.76212 | 30221 ft | 366 kts | 281° |
| 2026-04-27 10:14 | 48.79678 | 11.68592 | 30226 ft | 366 kts | 281° |
| 2026-04-27 10:14 | 48.80470 | 11.61021 | 30226 ft | 366 kts | 281° |
| 2026-04-27 10:15 | 48.81258 | 11.53398 | 30231 ft | 366 kts | 281° |
| 2026-04-27 10:15 | 48.82042 | 11.45765 | 30227 ft | 366 kts | 281° |
| 2026-04-27 10:16 | 48.82824 | 11.38138 | 30216 ft | 366 kts | 280° |
| 2026-04-27 10:16 | 48.83604 | 11.30495 | 30218 ft | 367 kts | 280° |
| 2026-04-27 10:17 | 48.84935 | 11.23088 | 30221 ft | 365 kts | 297° |
| 2026-04-27 10:17 | 48.86268 | 11.19824 | 30219 ft | 364 kts | 308° |
| 2026-04-27 10:17 | 48.88001 | 11.17010 | 30220 ft | 365 kts | 316° |
| 2026-04-27 10:18 | 48.91753 | 11.11805 | 30217 ft | 366 kts | 316° |
| 2026-04-27 10:18 | 48.95501 | 11.06578 | 30224 ft | 366 kts | 316° |
| 2026-04-27 10:19 | 48.99246 | 11.01336 | 30216 ft | 366 kts | 316° |
| 2026-04-27 10:19 | 49.02993 | 10.96087 | 30248 ft | 366 kts | 316° |
| 2026-04-27 10:20 | 49.06729 | 10.90826 | 30245 ft | 366 kts | 316° |
| 2026-04-27 10:20 | 49.10464 | 10.85553 | 30230 ft | 366 kts | 316° |
| 2026-04-27 10:21 | 49.12326 | 10.82921 | 29968 ft | 363 kts | 316° |
| 2026-04-27 10:21 | 49.14172 | 10.80311 | 29693 ft | 361 kts | 316° |
| 2026-04-27 10:21 | 49.16009 | 10.77711 | 29409 ft | 358 kts | 316° |
| 2026-04-27 10:21 | 49.17816 | 10.75152 | 29088 ft | 351 kts | 316° |
| 2026-04-27 10:22 | 49.19593 | 10.72636 | 28675 ft | 346 kts | 316° |
| 2026-04-27 10:22 | 49.21311 | 10.70095 | 28267 ft | 341 kts | 314° |
| 2026-04-27 10:22 | 49.22963 | 10.67517 | 27833 ft | 337 kts | 313° |
| 2026-04-27 10:22 | 49.24553 | 10.64973 | 27427 ft | 333 kts | 313° |
| 2026-04-27 10:23 | 49.26142 | 10.62413 | 27034 ft | 330 kts | 312° |
| 2026-04-27 10:23 | 49.27723 | 10.59872 | 26594 ft | 328 kts | 313° |
| 2026-04-27 10:23 | 49.29297 | 10.57358 | 26181 ft | 326 kts | 313° |
| 2026-04-27 10:23 | 49.30868 | 10.54863 | 25742 ft | 324 kts | 313° |
| 2026-04-27 10:24 | 49.32434 | 10.52384 | 25312 ft | 323 kts | 313° |
| 2026-04-27 10:24 | 49.33997 | 10.49913 | 24867 ft | 323 kts | 313° |
| 2026-04-27 10:24 | 49.35553 | 10.47446 | 24424 ft | 322 kts | 311° |
| 2026-04-27 10:24 | 49.36942 | 10.44716 | 24252 ft | 328 kts | 304° |
| 2026-04-27 10:25 | 49.38256 | 10.41820 | 24193 ft | 332 kts | 304° |